Time;durP1;ratioP1;P1;durP2;ratioP2;P2;SDS_P1;SDS_P2;PMS_P1;PMS_P2;Temp;Humidity;BMP_temperature;BMP_pressure;BME280_temperature;BME280_humidity;BME280_pressure;Samples;Min_cycle;Max_cycle;Signal;HPM_P1;HPM_P2
2022/04/09 00:02:03;;;;;;;6.77;4.30;;;;;;;5.23;69.70;98464.48;1720136;82;21135;-78
2022/04/09 00:04:32;;;;;;;8.30;4.73;;;;;;;5.20;69.87;98462.03;1722601;82;20997;-74
2022/04/09 00:06:59;;;;;;;8.53;4.43;;;;;;;5.16;69.90;98471.73;1725893;82;21021;-74
2022/04/09 00:09:27;;;;;;;5.43;4.13;;;;;;;5.13;69.99;98473.17;1722505;82;21395;-74
2022/04/09 00:11:54;;;;;;;13.10;6.37;;;;;;;5.08;70.15;98466.88;1726278;82;21206;-74
2022/04/09 00:14:21;;;;;;;14.87;7.90;;;;;;;5.09;70.24;98469.85;1724654;82;21240;-74
2022/04/09 00:16:48;;;;;;;14.10;7.00;;;;;;;5.09;70.22;98473.75;1724921;82;21096;-74
2022/04/09 00:19:16;;;;;;;12.50;6.67;;;;;;;5.11;70.34;98473.23;1718809;81;21147;-77
2022/04/09 00:21:44;;;;;;;14.00;7.17;;;;;;;5.11;70.38;98471.09;1722380;82;21076;-75
2022/04/09 00:24:12;;;;;;;13.73;7.00;;;;;;;5.11;70.44;98471.09;1713997;82;21076;-74
2022/04/09 00:26:40;;;;;;;11.17;6.70;;;;;;;5.11;70.40;98470.63;1729325;82;21196;-74
2022/04/09 00:29:08;;;;;;;12.30;6.37;;;;;;;5.10;70.43;98469.42;1715767;82;21561;-75
2022/04/09 00:31:40;;;;;;;9.33;6.07;;;;;;;5.07;70.57;98466.51;1718993;82;21118;-77
2022/04/09 00:34:07;;;;;;;10.83;6.33;;;;;;;5.05;70.72;98469.63;1711695;82;21099;-74
2022/04/09 00:36:34;;;;;;;11.57;6.70;;;;;;;5.03;70.78;98471.90;1715227;82;21067;-74
2022/04/09 00:39:02;;;;;;;11.43;6.37;;;;;;;4.99;70.75;98484.19;1723535;82;21192;-74
2022/04/09 00:41:29;;;;;;;14.53;6.97;;;;;;;4.96;70.90;98482.16;1727366;82;21273;-74
2022/04/09 00:43:56;;;;;;;76.73;29.97;;;;;;;4.96;70.95;98463.98;1714662;82;21509;-74
2022/04/09 00:46:24;;;;;;;49.70;19.07;;;;;;;4.95;71.05;98475.30;1725003;82;21036;-74
2022/04/09 00:48:51;;;;;;;38.23;16.23;;;;;;;4.96;71.35;98476.54;1687383;83;21030;-74
2022/04/09 00:51:18;;;;;;;36.20;13.97;;;;;;;4.98;71.40;98481.64;1732529;82;21841;-74
2022/04/09 00:53:49;;;;;;;25.00;11.10;;;;;;;4.96;71.46;98482.16;1716936;82;21041;-74
2022/04/09 00:56:21;;;;;;;14.87;7.53;;;;;;;4.97;71.44;98491.19;1688709;84;20980;-74
2022/04/09 00:58:56;;;;;;;11.00;5.90;;;;;;;4.96;71.62;98506.83;1727420;82;21005;-74
2022/04/09 01:01:34;;;;;;;12.97;6.70;;;;;;;4.95;71.67;98499.95;1732614;82;21533;-74
2022/04/09 01:04:07;;;;;;;9.60;5.90;;;;;;;4.94;71.91;98500.88;1719843;82;21131;-75
2022/04/09 01:06:35;;;;;;;8.73;5.17;;;;;;;4.95;72.05;98504.69;1728109;82;21470;-74
2022/04/09 01:09:05;;;;;;;10.07;5.40;;;;;;;4.97;71.96;98501.58;1720944;82;21172;-75
2022/04/09 01:11:33;;;;;;;20.30;9.17;;;;;;;4.98;72.18;98511.50;1732838;82;21113;-74
2022/04/09 01:14:01;;;;;;;20.80;9.30;;;;;;;4.98;72.10;98516.69;1726749;82;21012;-75
2022/04/09 01:16:29;;;;;;;16.33;8.70;;;;;;;4.98;72.29;98521.89;1713715;82;21106;-74
2022/04/09 01:19:00;;;;;;;22.03;11.13;;;;;;;4.98;72.37;98529.22;1718647;82;20957;-75
2022/04/09 01:21:29;;;;;;;16.20;8.80;;;;;;;4.99;72.60;98535.24;1708893;82;20984;-75
2022/04/09 01:23:59;;;;;;;9.77;5.90;;;;;;;5.00;72.81;98541.68;1718901;82;21037;-75
2022/04/09 01:26:27;;;;;;;15.63;7.67;;;;;;;4.99;72.85;98540.44;1715806;82;21544;-75
2022/04/09 01:28:54;;;;;;;9.07;4.60;;;;;;;4.97;72.88;98549.61;1722659;82;21784;-75
2022/04/09 01:31:22;;;;;;;6.87;4.30;;;;;;;4.98;72.71;98559.08;1719322;82;20985;-75
2022/04/09 01:33:51;;;;;;;6.00;2.97;;;;;;;5.01;72.82;98559.39;1714683;82;21016;-75
2022/04/09 01:36:18;;;;;;;4.70;2.67;;;;;;;5.01;72.73;98566.72;1728407;81;20999;-75
2022/04/09 01:38:48;;;;;;;5.33;2.40;;;;;;;5.02;72.75;98572.33;1723060;82;21084;-75
2022/04/09 01:41:16;;;;;;;4.72;2.60;;;;;;;5.02;72.50;98575.38;1720282;82;21467;-74
2022/04/09 01:43:45;;;;;;;3.67;2.30;;;;;;;5.04;72.80;98583.92;1723268;82;21045;-73
2022/04/09 01:46:12;;;;;;;3.87;2.10;;;;;;;5.02;72.62;98582.71;1720769;82;21009;-75
2022/04/09 01:48:41;;;;;;;3.63;2.20;;;;;;;5.01;72.77;98584.90;1708559;82;21075;-75
2022/04/09 01:51:08;;;;;;;5.17;3.03;;;;;;;5.00;72.73;98594.07;1719626;82;21052;-76
2022/04/09 01:53:36;;;;;;;6.30;2.97;;;;;;;4.96;72.79;98594.67;1716700;82;21116;-76
2022/04/09 01:56:04;;;;;;;4.10;2.70;;;;;;;4.94;72.91;98603.43;1722894;82;21044;-77
2022/04/09 01:58:33;;;;;;;5.15;2.67;;;;;;;4.89;73.17;98601.86;1725887;81;28615;-78
2022/04/09 02:01:01;;;;;;;5.00;2.73;;;;;;;4.86;73.21;98602.45;1726338;81;21429;-78
2022/04/09 02:03:31;;;;;;;5.53;2.90;;;;;;;4.81;73.29;98606.53;1728829;82;20992;-78
2022/04/09 02:05:58;;;;;;;4.53;2.67;;;;;;;4.76;73.34;98603.28;1722323;81;21176;-78
2022/04/09 02:08:26;;;;;;;4.77;2.90;;;;;;;4.73;73.57;98605.17;1710839;82;21024;-79
2022/04/09 02:10:54;;;;;;;5.03;2.80;;;;;;;4.66;73.80;98595.05;1725158;82;21024;-78
2022/04/09 02:13:21;;;;;;;8.40;3.50;;;;;;;4.65;74.25;98606.31;1715488;82;21019;-78
2022/04/09 02:15:49;;;;;;;6.43;3.33;;;;;;;4.60;73.99;98603.09;1725178;82;21004;-79
2022/04/09 02:18:18;;;;;;;4.83;3.17;;;;;;;4.57;73.91;98601.93;1715940;81;21206;-77
2022/04/09 02:20:45;;;;;;;6.27;4.00;;;;;;;4.53;74.28;98602.11;1728113;81;21070;-77
2022/04/09 02:23:13;;;;;;;4.87;3.43;;;;;;;4.51;74.32;98603.45;1722454;82;21029;-77
2022/04/09 02:25:40;;;;;;;5.93;3.37;;;;;;;4.49;74.47;98609.19;1714939;82;21041;-77
2022/04/09 02:28:07;;;;;;;4.57;3.37;;;;;;;4.47;74.56;98600.61;1718033;82;21059;-77
2022/04/09 02:30:34;;;;;;;5.83;3.53;;;;;;;4.46;74.76;98607.98;1711186;82;21561;-76
2022/04/09 02:33:03;;;;;;;6.60;3.97;;;;;;;4.46;75.06;98604.96;1724043;81;20997;-76
2022/04/09 02:35:32;;;;;;;8.13;3.83;;;;;;;4.46;74.78;98602.37;1721715;81;20997;-76
2022/04/09 02:38:00;;;;;;;6.93;3.70;;;;;;;4.45;74.93;98602.42;1729387;81;21006;-76
2022/04/09 02:40:29;;;;;;;5.37;3.93;;;;;;;4.45;75.14;98605.84;1721971;82;21016;-76
2022/04/09 02:42:56;;;;;;;6.37;3.63;;;;;;;4.45;74.96;98605.01;1730713;82;21145;-76
2022/04/09 02:45:24;;;;;;;5.10;3.07;;;;;;;4.44;75.20;98605.93;1741746;81;21491;-77
2022/04/09 02:47:52;;;;;;;6.07;3.50;;;;;;;4.44;75.35;98616.30;1724712;82;21051;-76
2022/04/09 02:50:21;;;;;;;6.80;3.63;;;;;;;4.44;75.42;98618.90;1715566;82;22192;-76
2022/04/09 02:52:49;;;;;;;6.73;3.57;;;;;;;4.46;75.66;98620.95;1728473;81;21000;-76
2022/04/09 02:55:18;;;;;;;5.90;3.70;;;;;;;4.46;75.62;98627.02;1721004;82;21665;-76
2022/04/09 02:57:46;;;;;;;4.47;2.97;;;;;;;4.44;75.56;98632.70;1728954;81;20988;-76
2022/04/09 03:00:15;;;;;;;4.43;3.70;;;;;;;4.45;75.46;98630.95;1715693;81;21051;-76
2022/04/09 03:02:43;;;;;;;8.17;3.47;;;;;;;4.43;75.58;98640.53;1728789;82;21020;-78
2022/04/09 03:05:13;;;;;;;5.30;4.10;;;;;;;4.42;75.79;98644.05;1730007;82;21157;-76
2022/04/09 03:07:41;;;;;;;7.47;4.10;;;;;;;4.43;75.49;98649.62;1719239;81;21120;-76
2022/04/09 03:10:09;;;;;;;7.07;3.43;;;;;;;4.40;75.53;98651.87;1719261;82;21485;-76
2022/04/09 03:12:38;;;;;;;6.30;3.63;;;;;;;4.41;75.83;98663.12;1723897;82;20988;-75
2022/04/09 03:15:06;;;;;;;7.63;4.50;;;;;;;4.40;75.83;98667.91;1725707;82;21029;-76
2022/04/09 03:17:33;;;;;;;7.10;3.83;;;;;;;4.38;76.01;98658.03;1735408;81;21020;-75
2022/04/09 03:20:00;;;;;;;6.17;3.80;;;;;;;4.36;76.10;98668.48;1720584;81;22061;-76
2022/04/09 03:22:30;;;;;;;6.50;3.83;;;;;;;4.35;76.29;98678.48;1713848;82;21258;-75
2022/04/09 03:25:01;;;;;;;7.07;4.10;;;;;;;4.35;76.45;98682.37;1709390;82;21047;-75
2022/04/09 03:27:30;;;;;;;7.03;4.33;;;;;;;4.36;76.56;98687.10;1725017;82;21087;-76
2022/04/09 03:29:58;;;;;;;8.13;3.57;;;;;;;4.36;76.43;98688.39;1722566;82;21057;-75
2022/04/09 03:32:26;;;;;;;5.70;2.93;;;;;;;4.35;76.41;98694.05;1711006;82;21161;-76
2022/04/09 03:34:54;;;;;;;5.47;3.40;;;;;;;4.35;76.30;98695.77;1710245;82;21530;-76
2022/04/09 03:37:23;;;;;;;4.90;3.50;;;;;;;4.35;76.26;98703.13;1724304;82;21514;-75
2022/04/09 03:39:51;;;;;;;7.17;3.20;;;;;;;4.36;76.30;98709.14;1726177;82;20988;-77
2022/04/09 03:42:18;;;;;;;6.70;4.37;;;;;;;4.33;76.21;98715.30;1717817;82;21020;-76
2022/04/09 03:44:47;;;;;;;4.97;3.37;;;;;;;4.31;76.38;98709.77;1720279;82;21541;-76
2022/04/09 03:47:14;;;;;;;5.30;3.30;;;;;;;4.30;76.25;98715.42;1724469;82;21534;-76
2022/04/09 03:49:42;;;;;;;6.60;3.70;;;;;;;4.28;76.22;98722.86;1720071;82;21138;-76
2022/04/09 03:52:10;;;;;;;6.87;3.60;;;;;;;4.25;76.21;98722.06;1716446;82;21048;-76
2022/04/09 03:54:38;;;;;;;8.13;4.23;;;;;;;4.22;76.19;98732.56;1734374;82;21012;-76
2022/04/09 03:57:06;;;;;;;6.03;3.83;;;;;;;4.21;76.21;98737.79;1709720;82;21158;-76
2022/04/09 03:59:35;;;;;;;6.50;3.80;;;;;;;4.20;76.24;98743.89;1715522;82;21032;-76
2022/04/09 04:02:03;;;;;;;6.07;3.80;;;;;;;4.17;76.33;98753.09;1711940;82;20999;-76
2022/04/09 04:04:30;;;;;;;6.37;3.70;;;;;;;4.15;76.37;98753.13;1726223;82;21430;-76
2022/04/09 04:06:58;;;;;;;7.03;4.27;;;;;;;4.13;76.35;98764.03;1723100;82;21101;-75
2022/04/09 04:09:25;;;;;;;5.90;4.13;;;;;;;4.12;76.48;98761.48;1735380;82;21189;-77
2022/04/09 04:11:55;;;;;;;6.53;4.43;;;;;;;4.09;76.32;98767.63;1716349;81;21430;-75
2022/04/09 04:14:25;;;;;;;5.70;4.00;;;;;;;4.07;76.63;98765.53;1725677;82;21082;-75
2022/04/09 04:16:52;;;;;;;8.47;4.43;;;;;;;4.08;76.62;98772.88;1727412;82;21044;-77
2022/04/09 04:19:20;;;;;;;7.70;3.73;;;;;;;4.08;76.62;98773.72;1721662;82;21024;-75
2022/04/09 04:21:48;;;;;;;6.43;3.93;;;;;;;4.08;76.59;98776.31;1727906;81;21136;-75
2022/04/09 04:24:16;;;;;;;5.90;4.00;;;;;;;4.08;76.66;98778.07;1724481;82;21693;-76
2022/04/09 04:26:44;;;;;;;8.07;4.47;;;;;;;4.09;76.82;98777.99;1694412;82;21024;-75
2022/04/09 04:29:13;;;;;;;7.03;4.33;;;;;;;4.10;76.78;98780.13;1730314;82;21032;-78
2022/04/09 04:31:40;;;;;;;5.67;3.83;;;;;;;4.11;76.67;98792.21;1732339;82;21533;-75
2022/04/09 04:34:08;;;;;;;5.27;3.80;;;;;;;4.10;76.80;98793.09;1726405;82;21106;-75
2022/04/09 04:36:37;;;;;;;6.90;4.13;;;;;;;4.13;76.74;98796.45;1731063;82;21013;-75
2022/04/09 04:39:04;;;;;;;6.43;3.57;;;;;;;4.11;76.61;98794.34;1710710;82;21008;-75
2022/04/09 04:41:32;;;;;;;7.53;4.60;;;;;;;4.10;76.57;98793.09;1712688;82;21466;-76
2022/04/09 04:43:59;;;;;;;5.13;3.90;;;;;;;4.10;76.76;98803.05;1727335;82;21019;-76
2022/04/09 04:46:28;;;;;;;5.80;4.13;;;;;;;4.10;76.56;98802.17;1730296;82;21949;-76
2022/04/09 04:48:56;;;;;;;7.43;4.00;;;;;;;4.10;76.49;98804.77;1715232;82;21071;-75
2022/04/09 04:51:25;;;;;;;7.03;4.37;;;;;;;4.09;76.56;98810.41;1734423;81;21040;-76
2022/04/09 04:53:54;;;;;;;6.53;4.10;;;;;;;4.09;76.69;98806.52;1711342;82;21293;-76
2022/04/09 04:56:24;;;;;;;6.57;3.93;;;;;;;4.11;76.70;98812.50;1713274;82;21020;-76
2022/04/09 04:58:53;;;;;;;6.63;4.40;;;;;;;4.12;76.57;98819.37;1731340;82;21144;-76
2022/04/09 05:01:20;;;;;;;6.27;4.30;;;;;;;4.12;76.56;98819.82;1721982;82;21053;-76
2022/04/09 05:03:50;;;;;;;10.00;7.30;;;;;;;4.13;76.61;98830.58;1732721;82;21009;-75
2022/04/09 05:06:25;;;;;;;9.97;4.87;;;;;;;4.12;76.47;98838.81;1720990;82;21461;-75
2022/04/09 05:08:54;;;;;;;7.40;3.97;;;;;;;4.12;76.50;98847.89;1733975;82;21010;-75
2022/04/09 05:11:23;;;;;;;8.03;5.05;;;;;;;4.12;76.38;98858.26;1731198;82;21128;-75
2022/04/09 05:13:51;;;;;;;8.57;4.33;;;;;;;4.13;76.43;98867.75;1706919;82;21533;-75
2022/04/09 05:16:19;;;;;;;6.43;4.00;;;;;;;4.15;76.52;98872.86;1732646;82;21028;-75
2022/04/09 05:18:51;;;;;;;6.50;4.00;;;;;;;4.16;76.59;98870.69;1729519;82;21540;-75
2022/04/09 05:21:19;;;;;;;6.67;4.27;;;;;;;4.18;76.60;98873.59;1715717;82;21595;-75
2022/04/09 05:23:46;;;;;;;7.63;4.17;;;;;;;4.23;76.68;98882.06;1717411;82;21747;-75
2022/04/09 05:26:14;;;;;;;7.60;4.03;;;;;;;4.27;76.50;98885.42;1718273;82;21045;-74
2022/04/09 05:28:43;;;;;;;5.60;3.83;;;;;;;4.31;76.49;98887.44;1710061;81;21028;-76
2022/04/09 05:31:11;;;;;;;6.10;3.77;;;;;;;4.33;76.32;98893.43;1719396;81;21013;-75
2022/04/09 05:33:40;;;;;;;12.13;4.20;;;;;;;4.37;76.48;98900.19;1724673;82;21075;-75
2022/04/09 05:36:08;;;;;;;6.87;4.30;;;;;;;4.40;76.46;98911.29;1731903;82;21302;-77
2022/04/09 05:38:35;;;;;;;7.67;4.03;;;;;;;4.45;76.41;98918.92;1726532;81;21076;-75
2022/04/09 05:41:02;;;;;;;7.97;5.00;;;;;;;4.49;76.49;98919.22;1726755;82;21099;-74
2022/04/09 05:43:29;;;;;;;7.20;4.47;;;;;;;4.53;76.42;98924.68;1731652;80;21092;-74
2022/04/09 05:45:58;;;;;;;7.50;4.47;;;;;;;4.57;76.34;98921.52;1750556;80;21011;-75
2022/04/09 05:48:26;;;;;;;6.87;4.00;;;;;;;4.60;76.29;98921.41;1735078;81;21709;-77
2022/04/09 05:50:55;;;;;;;8.73;4.40;;;;;;;4.61;76.23;98930.44;1740465;80;21013;-77
2022/04/09 05:53:23;;;;;;;8.90;5.00;;;;;;;4.64;76.18;98944.60;1744865;81;21494;-76
2022/04/09 05:55:51;;;;;;;7.27;4.53;;;;;;;4.66;76.26;98944.10;1748724;80;21190;-76
2022/04/09 05:58:18;;;;;;;11.03;5.30;;;;;;;4.74;76.26;98952.05;1745197;81;20998;-76
2022/04/09 06:00:48;;;;;;;8.53;4.60;;;;;;;4.77;75.96;98950.20;1675403;83;21149;-77
2022/04/09 06:03:23;;;;;;;8.57;3.93;;;;;;;4.80;75.94;98953.98;1661562;85;21140;-75
2022/04/09 06:05:50;;;;;;;7.30;4.43;;;;;;;4.86;76.17;98960.24;1671968;84;21018;-77
2022/04/09 06:08:22;;;;;;;7.87;4.13;;;;;;;4.94;76.11;98962.56;1716953;81;20993;-79
2022/04/09 06:10:49;;;;;;;6.20;3.70;;;;;;;5.01;75.94;98955.38;1739498;81;21111;-75
2022/04/09 06:13:16;;;;;;;10.93;5.57;;;;;;;5.06;75.92;98959.95;1728885;81;21470;-74
2022/04/09 06:15:45;;;;;;;10.53;5.50;;;;;;;5.09;75.65;98965.88;1728467;81;21476;-76
2022/04/09 06:18:14;;;;;;;8.00;4.05;;;;;;;5.13;75.79;98971.81;1732995;81;21532;-75
2022/04/09 06:20:42;;;;;;;7.67;4.53;;;;;;;5.14;75.49;98976.09;1733019;82;21041;-76
2022/04/09 06:23:10;;;;;;;12.57;6.30;;;;;;;5.15;75.45;98972.58;1732984;82;21024;-76
2022/04/09 06:25:38;;;;;;;11.00;6.50;;;;;;;5.14;75.26;98983.89;1733224;82;21141;-74
2022/04/09 06:28:05;;;;;;;16.83;6.50;;;;;;;5.11;75.15;98991.80;1733288;82;21068;-75
2022/04/09 06:30:33;;;;;;;11.67;6.47;;;;;;;5.04;74.97;98991.16;1733203;82;20941;-75
2022/04/09 06:33:02;;;;;;;7.47;4.20;;;;;;;5.02;74.96;98991.69;1734261;82;20975;-75
2022/04/09 06:35:30;;;;;;;7.77;4.53;;;;;;;4.96;74.83;99006.20;1736759;82;21013;-74
2022/04/09 06:37:57;;;;;;;8.20;4.40;;;;;;;4.90;74.76;99009.00;1730798;82;21045;-75
2022/04/09 06:40:28;;;;;;;7.30;3.73;;;;;;;4.83;74.72;99008.38;1733089;82;20974;-75
2022/04/09 06:42:54;;;;;;;8.80;4.73;;;;;;;4.78;74.66;99012.05;1732183;82;21052;-74
2022/04/09 06:45:39;;;;;;;9.23;4.27;;;;;;;4.77;74.69;99011.66;1735637;81;21081;-74
2022/04/09 06:48:24;;;;;;;9.60;4.90;;;;;;;4.78;74.84;99025.02;1742273;80;21037;-76
2022/04/09 06:51:03;;;;;;;11.60;4.27;;;;;;;4.83;75.04;99021.36;1738411;81;21142;-75
2022/04/09 06:53:32;;;;;;;8.05;3.65;;;;;;;4.92;75.04;99022.33;1730014;81;28154;-74
2022/04/09 06:55:59;;;;;;;8.93;3.40;;;;;;;5.01;75.22;99032.82;1726646;82;21022;-75
2022/04/09 06:58:26;;;;;;;10.97;4.50;;;;;;;5.16;75.12;99040.98;1747627;80;21044;-76
2022/04/09 07:00:54;;;;;;;6.50;2.50;;;;;;;5.28;74.91;99041.82;1728247;81;21035;-73
2022/04/09 07:03:21;;;;;;;6.67;2.83;;;;;;;5.33;74.55;99037.30;1723212;82;21939;-75
2022/04/09 07:05:48;;;;;;;8.37;3.90;;;;;;;5.31;74.22;99061.19;1732778;82;21514;-74
2022/04/09 07:08:15;;;;;;;5.13;2.53;;;;;;;5.34;74.30;99070.16;1732902;82;21069;-75
2022/04/09 07:10:43;;;;;;;4.90;2.50;;;;;;;5.42;74.21;99067.29;1716670;82;21182;-78
2022/04/09 07:13:10;;;;;;;9.03;3.27;;;;;;;5.51;74.19;99074.27;1734757;82;21541;-78
2022/04/09 07:15:37;;;;;;;7.47;2.70;;;;;;;5.58;73.85;99087.45;1755620;81;21498;-74
2022/04/09 07:18:05;;;;;;;7.53;2.93;;;;;;;5.64;73.82;99092.86;1756114;80;21495;-74
2022/04/09 07:20:35;;;;;;;4.63;2.20;;;;;;;5.71;73.53;99093.47;1755503;81;21049;-75
2022/04/09 07:23:02;;;;;;;7.20;3.30;;;;;;;5.72;73.25;99101.68;1735048;80;21059;-74
2022/04/09 07:25:30;;;;;;;7.37;2.10;;;;;;;5.70;72.95;99104.78;1756010;80;21028;-80
2022/04/09 07:27:58;;;;;;;5.53;2.40;;;;;;;5.68;72.67;99118.28;1764384;80;21973;-75
2022/04/09 07:30:26;;;;;;;7.37;3.53;;;;;;;5.67;72.55;99123.09;1758558;80;21025;-74
2022/04/09 07:32:58;;;;;;;9.10;2.90;;;;;;;5.70;72.47;99126.88;1740777;80;21027;-76
2022/04/09 07:35:26;;;;;;;6.87;3.10;;;;;;;5.78;72.53;99136.55;1745082;80;21004;-72
2022/04/09 07:37:55;;;;;;;5.17;2.40;;;;;;;5.80;71.89;99145.14;1759507;80;21068;-72
2022/04/09 07:40:25;;;;;;;5.87;2.60;;;;;;;5.81;71.64;99149.42;1754641;80;21353;-73
2022/04/09 07:42:53;;;;;;;9.47;3.17;;;;;;;5.83;71.43;99145.48;1754428;80;20970;-73
2022/04/09 07:45:21;;;;;;;7.50;3.00;;;;;;;5.86;71.10;99160.96;1757554;80;21020;-73
2022/04/09 07:47:57;;;;;;;6.47;2.93;;;;;;;5.90;71.17;99173.77;1753171;80;21028;-74
2022/04/09 07:50:25;;;;;;;8.90;3.73;;;;;;;5.96;71.12;99177.95;1746241;81;21051;-71
2022/04/09 07:52:53;;;;;;;5.17;2.27;;;;;;;6.09;70.83;99177.86;1755354;80;21188;-72
2022/04/09 07:55:21;;;;;;;5.73;2.53;;;;;;;6.18;70.73;99189.66;1752650;80;21075;-72
2022/04/09 07:57:50;;;;;;;4.70;2.33;;;;;;;6.33;70.97;99189.55;1745417;81;21008;-72
2022/04/09 08:00:19;;;;;;;4.47;1.90;;;;;;;6.46;70.53;99187.70;1763833;80;21033;-72
2022/04/09 08:02:46;;;;;;;5.53;1.40;;;;;;;6.51;69.77;99190.56;1758448;81;21017;-73
2022/04/09 08:05:15;;;;;;;3.00;1.80;;;;;;;6.42;69.06;99211.30;1763588;81;21936;-72
2022/04/09 08:07:42;;;;;;;6.37;2.10;;;;;;;6.28;68.54;99205.33;1750179;80;21561;-72
2022/04/09 08:10:11;;;;;;;6.30;2.40;;;;;;;6.34;69.08;99209.45;1754674;81;21024;-72
2022/04/09 08:12:39;;;;;;;5.30;2.00;;;;;;;6.40;68.61;99217.88;1763410;81;21025;-76
2022/04/09 08:15:09;;;;;;;4.97;1.93;;;;;;;6.50;68.56;99222.27;1763481;81;21382;-72
2022/04/09 08:17:40;;;;;;;4.47;1.57;;;;;;;6.44;67.83;99230.31;1748557;80;21100;-73
2022/04/09 08:20:09;;;;;;;8.87;1.90;;;;;;;6.49;67.86;99220.58;1764881;80;21025;-71
2022/04/09 08:22:36;;;;;;;5.12;1.72;;;;;;;6.60;67.27;99218.39;1759466;80;21008;-70
2022/04/09 08:25:05;;;;;;;3.90;1.70;;;;;;;6.70;67.56;99237.09;1746269;80;21035;-71
2022/04/09 08:27:32;;;;;;;4.77;1.57;;;;;;;6.70;66.79;99236.63;1751460;80;20981;-70
2022/04/09 08:29:59;;;;;;;3.60;2.10;;;;;;;6.72;66.37;99229.23;1753579;81;21907;-70
2022/04/09 08:32:28;;;;;;;5.20;1.70;;;;;;;6.82;66.61;99254.84;1763529;80;21005;-71
2022/04/09 08:34:55;;;;;;;5.30;1.50;;;;;;;6.93;65.67;99244.84;1740881;80;21055;-70
2022/04/09 08:37:23;;;;;;;4.07;1.33;;;;;;;6.96;65.45;99241.27;1726998;80;21001;-70
2022/04/09 08:39:54;;;;;;;4.70;1.47;;;;;;;6.97;65.24;99249.92;1752888;80;21032;-71
2022/04/09 08:42:21;;;;;;;;;;;;;;;7.05;65.05;99245.25;1748264;81;21860;-75
2022/04/09 08:44:49;;;;;;;7.40;1.40;;;;;;;7.14;64.27;99253.52;1740385;81;20132;-74
2022/04/09 08:47:17;;;;;;;3.33;1.17;;;;;;;7.13;64.10;99267.94;1740092;81;21032;-73
2022/04/09 08:49:47;;;;;;;5.40;1.40;;;;;;;7.23;64.19;99272.30;1740293;81;21001;-74
2022/04/09 08:52:15;;;;;;;5.22;1.57;;;;;;;7.33;63.98;99271.02;1730944;81;21039;-73
2022/04/09 08:54:42;;;;;;;3.77;1.73;;;;;;;7.41;63.89;99272.84;1711688;82;21166;-73
2022/04/09 08:57:10;;;;;;;2.07;1.10;;;;;;;7.43;64.21;99280.58;1737151;81;20984;-73
2022/04/09 08:59:37;;;;;;;5.67;1.33;;;;;;;7.40;63.80;99285.50;1714343;81;21059;-74
2022/04/09 09:02:04;;;;;;;3.73;1.40;;;;;;;7.54;64.01;99294.89;1748536;80;21514;-75
2022/04/09 09:04:31;;;;;;;4.23;1.37;;;;;;;7.55;62.79;99297.88;1722415;82;21023;-71
2022/04/09 09:07:22;;;;;;;4.07;1.40;;;;;;;7.45;62.32;99309.59;1719677;81;21468;-75
2022/04/09 09:09:51;;;;;;;4.75;1.27;;;;;;;7.45;62.65;99313.50;1738084;81;21031;-75
2022/04/09 09:12:30;;;;;;;3.47;1.50;;;;;;;7.63;62.99;99316.27;1763420;81;21460;-73
2022/04/09 09:14:58;;;;;;;3.93;1.30;;;;;;;7.74;62.81;99318.81;1738553;81;21064;-73
2022/04/09 09:17:28;;;;;;;4.07;1.40;;;;;;;7.80;62.51;99324.22;1746316;81;21280;-76
2022/04/09 09:19:55;;;;;;;3.52;1.27;;;;;;;7.90;61.89;99328.14;1742462;81;21268;-75
2022/04/09 09:22:38;;;;;;;5.10;1.33;;;;;;;7.97;60.61;99324.33;1750075;81;21024;-71
2022/04/09 09:25:11;;;;;;;8.87;1.40;;;;;;;8.10;60.92;99330.34;1735155;80;21027;-75
2022/04/09 09:27:43;;;;;;;3.97;1.60;;;;;;;8.18;60.30;99330.38;1751446;80;21155;-75
2022/04/09 09:30:11;;;;;;;3.27;1.40;;;;;;;8.35;60.53;99339.23;1735096;80;24962;-73
2022/04/09 09:32:41;;;;;;;4.77;1.93;;;;;;;8.50;59.95;99342.47;1742213;81;21121;-72
2022/04/09 09:35:14;;;;;;;7.37;1.50;;;;;;;8.53;60.08;99334.95;1749560;80;21441;-75
2022/04/09 09:37:38;;;;;;;2.72;1.22;;;;;;;8.53;59.70;99332.34;1755908;81;21013;-75
2022/04/09 09:40:06;;;;;;;4.13;1.30;;;;;;;8.43;59.18;99338.00;1733213;80;21333;-76
2022/04/09 09:42:35;;;;;;;2.93;1.23;;;;;;;8.22;58.52;99346.75;1710504;82;21027;-72
2022/04/09 09:45:02;;;;;;;6.37;1.30;;;;;;;8.16;58.34;99355.70;1710959;81;21048;-72
2022/04/09 09:47:29;;;;;;;5.27;1.23;;;;;;;8.23;57.64;99341.91;1717981;82;21024;-71
2022/04/09 09:49:56;;;;;;;7.17;2.00;;;;;;;8.15;57.70;99350.56;1728678;82;21102;-73
2022/04/09 09:52:37;;;;;;;4.13;1.10;;;;;;;8.17;57.64;99344.80;1729824;82;21020;-72
2022/04/09 09:55:14;;;;;;;4.93;1.07;;;;;;;8.43;57.73;99341.08;1732047;82;21080;-75
2022/04/09 09:57:42;;;;;;;5.00;1.23;;;;;;;8.71;57.70;99332.35;1724876;82;21143;-73
2022/04/09 10:00:12;;;;;;;5.53;1.17;;;;;;;9.02;57.46;99343.98;1717377;82;20989;-75
2022/04/09 10:02:39;;;;;;;3.45;1.50;;;;;;;9.23;56.75;99349.09;1707171;82;21138;-74
2022/04/09 10:05:08;;;;;;;5.40;1.00;;;;;;;9.44;55.99;99334.12;1730783;82;21020;-71
2022/04/09 10:07:36;;;;;;;3.67;1.00;;;;;;;9.58;56.34;99341.67;1733138;82;20989;-77
2022/04/09 10:10:06;;;;;;;5.17;1.10;;;;;;;9.91;56.74;99336.13;1733082;82;21123;-76
2022/04/09 10:12:41;;;;;;;5.23;1.50;;;;;;;10.01;56.25;99343.44;1724511;82;20985;-75
2022/04/09 10:15:09;;;;;;;6.30;1.22;;;;;;;10.20;56.24;99345.11;1715866;82;21008;-73
2022/04/09 10:17:39;;;;;;;5.15;1.27;;;;;;;10.55;56.08;99347.17;1707863;82;21000;-76
2022/04/09 10:20:08;;;;;;;3.00;1.00;;;;;;;10.82;55.43;99353.17;1733232;82;21533;-74
2022/04/09 10:22:48;;;;;;;4.30;1.57;;;;;;;11.04;54.61;99349.75;1727855;82;21119;-75
2022/04/09 10:25:17;;;;;;;4.72;1.15;;;;;;;11.15;53.44;99374.91;1706608;82;21326;-74
2022/04/09 10:27:53;;;;;;;4.28;1.20;;;;;;;10.67;52.33;99368.81;1723013;82;20973;-73
2022/04/09 10:30:25;;;;;;;5.55;1.40;;;;;;;10.18;52.10;99379.22;1734216;81;21202;-75
2022/04/09 10:32:59;;;;;;;5.08;1.55;;;;;;;9.95;53.17;99392.18;1733266;82;21300;-74
2022/04/09 10:35:40;;;;;;;4.35;1.30;;;;;;;10.05;53.21;99392.08;1721636;81;21108;-74
2022/04/09 10:38:13;;;;;;;3.72;1.12;;;;;;;9.83;52.57;99404.09;1717162;82;20931;-74
2022/04/09 10:40:55;;;;;;;4.00;1.17;;;;;;;9.81;52.75;99402.03;1712419;82;21506;-72
2022/04/09 10:43:28;;;;;;;2.58;0.72;;;;;;;9.99;52.87;99404.64;1724418;82;21076;-72
2022/04/09 10:46:08;;;;;;;3.22;1.55;;;;;;;10.25;52.47;99393.70;1717567;82;21359;-73
2022/04/09 10:48:38;;;;;;;4.15;1.25;;;;;;;10.69;52.95;99389.67;1721769;82;21897;-73
2022/04/09 10:51:08;;;;;;;4.92;1.77;;;;;;;11.14;52.51;99390.71;1732646;82;21005;-73
2022/04/09 10:53:42;;;;;;;2.72;0.78;;;;;;;11.42;51.82;99402.28;1714061;82;21119;-73
2022/04/09 10:56:27;;;;;;;5.10;1.92;;;;;;;11.62;50.93;99396.77;1710142;82;22011;-73
2022/04/09 10:59:20;;;;;;;7.67;3.50;;;;;;;11.88;50.47;99418.91;1728492;82;21016;-73
2022/04/09 11:01:50;;;;;;;6.92;3.50;;;;;;;11.91;49.96;99411.33;1719719;82;21134;-73
2022/04/09 11:04:34;;;;;;;7.80;3.47;;;;;;;12.24;50.10;99409.33;1721302;82;21011;-73
2022/04/09 11:07:22;;;;;;;6.35;2.00;;;;;;;12.62;49.54;99410.12;1727403;82;21081;-73
2022/04/09 11:10:00;;;;;;;4.35;1.52;;;;;;;12.65;47.98;99419.61;1714724;82;21003;-73
2022/04/09 11:12:40;;;;;;;7.83;3.60;;;;;;;12.32;48.29;99430.37;1720106;82;21044;-73
2022/04/09 11:15:11;;;;;;;2.45;1.20;;;;;;;12.00;47.39;99426.57;1723934;82;21116;-73
2022/04/09 11:17:43;;;;;;;6.75;2.92;;;;;;;12.08;47.88;99432.66;1730097;82;20993;-73
2022/04/09 11:20:20;;;;;;;3.42;1.85;;;;;;;11.84;46.35;99437.91;1694863;82;21091;-73
2022/04/09 11:22:55;;;;;;;4.83;1.95;;;;;;;11.29;45.20;99438.41;1712317;82;21024;-72
2022/04/09 11:25:26;;;;;;;3.90;1.72;;;;;;;11.27;46.06;99445.97;1713580;82;21029;-72
2022/04/09 11:28:17;;;;;;;1.67;0.90;;;;;;;11.47;46.21;99431.74;1729489;82;21514;-73
2022/04/09 11:31:03;;;;;;;3.12;1.10;;;;;;;11.86;46.23;99428.69;1714798;82;20988;-73
2022/04/09 11:33:29;;;;;;;5.37;0.93;;;;;;;12.31;45.50;99419.03;1721200;82;21037;-73
2022/04/09 11:35:59;;;;;;;2.15;0.80;;;;;;;12.53;45.59;99424.31;1727914;82;20921;-74
2022/04/09 11:38:27;;;;;;;;;;;;;;;13.06;45.90;99431.51;1729616;82;21020;-73
2022/04/09 11:40:56;;;;;;;4.12;1.35;;;;;;;13.08;44.36;99422.19;1718796;82;21110;-73
2022/04/09 11:43:24;;;;;;;3.70;1.27;;;;;;;12.79;44.19;99425.34;1733059;82;21350;-73
2022/04/09 11:45:53;;;;;;;2.77;1.12;;;;;;;12.57;43.50;99437.16;1732025;82;21024;-76
2022/04/09 11:48:22;;;;;;;3.98;1.22;;;;;;;12.23;43.46;99426.52;1715877;82;21005;-72
2022/04/09 11:50:51;;;;;;;3.95;1.67;;;;;;;11.98;44.28;99431.89;1717791;82;21126;-72